Time;durP1;ratioP1;P1;durP2;ratioP2;P2;SDS_P1;SDS_P2;PMS_P1;PMS_P2;Temp;Humidity;BMP_temperature;BMP_pressure;BME280_temperature;BME280_humidity;BME280_pressure;Samples;Min_cycle;Max_cycle;Signal;HPM_P1;HPM_P2
2020/12/07 00:03:22;;;;;;;27.35;12.63;;;;;;;6.16;100.00;94565.03;10527806;28;20482;-72
2020/12/07 00:08:23;;;;;;;24.77;11.43;;;;;;;6.08;100.00;94554.81;10526810;28;20140;-72
2020/12/07 00:13:23;;;;;;;26.20;12.00;;;;;;;6.12;100.00;94566.59;10507768;28;20270;-72
2020/12/07 00:18:23;;;;;;;23.98;10.52;;;;;;;6.09;100.00;94559.91;10526234;28;20380;-73
2020/12/07 00:23:24;;;;;;;25.73;11.25;;;;;;;5.96;100.00;94558.38;10495185;28;20040;-72
2020/12/07 00:28:24;;;;;;;24.58;12.07;;;;;;;5.92;100.00;94554.59;10485756;28;20115;-73
2020/12/07 00:33:25;;;;;;;24.03;11.40;;;;;;;5.83;100.00;94556.06;10485862;28;20055;-72
2020/12/07 00:38:25;;;;;;;22.42;11.70;;;;;;;5.87;100.00;94551.84;10485891;28;20048;-72
2020/12/07 00:43:26;;;;;;;29.00;14.02;;;;;;;5.84;100.00;94552.34;10503876;28;20035;-72
2020/12/07 00:48:26;;;;;;;27.25;12.70;;;;;;;5.73;100.00;94551.41;10493897;28;20033;-72
2020/12/07 00:53:26;;;;;;;28.58;12.88;;;;;;;5.83;100.00;94529.41;10476169;28;20392;-73
2020/12/07 00:58:28;;;;;;;28.50;13.13;;;;;;;5.77;100.00;94519.75;10494123;28;20037;-73
2020/12/07 01:03:29;;;;;;;24.67;11.85;;;;;;;5.81;100.00;94515.53;10494543;28;20835;-72
2020/12/07 01:08:29;;;;;;;31.00;12.75;;;;;;;5.91;100.00;94502.31;10493658;28;20047;-72
2020/12/07 01:13:30;;;;;;;30.48;14.20;;;;;;;5.99;100.00;94523.22;10493486;28;20479;-73
2020/12/07 01:18:30;;;;;;;31.67;13.80;;;;;;;5.96;100.00;94518.38;10493176;28;20041;-74
2020/12/07 01:23:30;;;;;;;21.15;10.15;;;;;;;5.91;100.00;94491.63;10493473;28;20119;-76
2020/12/07 01:28:31;;;;;;;25.47;11.83;;;;;;;5.86;100.00;94488.94;10493550;28;20116;-76
2020/12/07 01:33:31;;;;;;;28.47;12.47;;;;;;;5.95;100.00;94492.75;10493004;28;20282;-76
2020/12/07 01:38:32;;;;;;;32.15;12.07;;;;;;;5.93;100.00;94478.88;10492569;28;20401;-76
2020/12/07 01:43:32;;;;;;;21.10;11.10;;;;;;;5.80;100.00;94468.56;10490933;28;20495;-76
2020/12/07 01:48:33;;;;;;;23.67;10.75;;;;;;;5.91;100.00;94482.84;10491389;28;20033;-77
2020/12/07 01:53:34;;;;;;;24.98;11.40;;;;;;;5.82;100.00;94485.16;10491284;28;20039;-77
2020/12/07 01:58:34;;;;;;;20.67;9.40;;;;;;;5.65;100.00;94477.19;10489973;28;20090;-76
2020/12/07 02:03:35;;;;;;;18.70;8.65;;;;;;;5.58;100.00;94480.06;10490616;28;20044;-76
2020/12/07 02:08:36;;;;;;;23.23;12.18;;;;;;;5.61;100.00;94476.06;10490831;28;20158;-75
2020/12/07 02:13:36;;;;;;;23.13;11.13;;;;;;;5.67;100.00;94471.63;10490129;28;20471;-76
2020/12/07 02:18:36;;;;;;;21.70;11.25;;;;;;;5.80;100.00;94480.06;10490695;28;20718;-76
2020/12/07 02:23:37;;;;;;;20.13;11.20;;;;;;;5.75;100.00;94474.66;10490030;28;20028;-76
2020/12/07 02:28:37;;;;;;;21.88;10.25;;;;;;;5.73;100.00;94476.75;10490847;28;20036;-76
2020/12/07 02:33:38;;;;;;;21.23;10.50;;;;;;;5.68;100.00;94473.22;10506013;28;20032;-76
2020/12/07 02:38:38;;;;;;;23.40;12.07;;;;;;;5.77;100.00;94467.19;10489478;28;20055;-76
2020/12/07 02:43:38;;;;;;;24.75;11.35;;;;;;;5.70;100.00;94465.81;10489770;28;20143;-77
2020/12/07 02:48:39;;;;;;;21.90;10.57;;;;;;;5.75;100.00;94463.16;10489341;28;20028;-77
2020/12/07 02:53:39;;;;;;;32.13;11.93;;;;;;;5.80;100.00;94463.25;10489165;28;20294;-77
2020/12/07 02:58:40;;;;;;;23.30;11.77;;;;;;;5.92;100.00;94458.56;10489393;28;20294;-76
2020/12/07 03:03:40;;;;;;;20.60;10.55;;;;;;;5.86;100.00;94470.25;10488628;28;20060;-76
2020/12/07 03:08:40;;;;;;;23.93;11.63;;;;;;;5.69;100.00;94480.97;10506073;28;20822;-77
2020/12/07 03:13:41;;;;;;;27.77;11.48;;;;;;;5.50;100.00;94485.81;10504992;28;20395;-76
2020/12/07 03:18:41;;;;;;;24.37;12.20;;;;;;;5.54;100.00;94462.97;10489599;28;20406;-77
2020/12/07 03:23:42;;;;;;;26.80;12.82;;;;;;;5.62;100.00;94454.53;10489913;28;20295;-76
2020/12/07 03:28:42;;;;;;;23.50;11.48;;;;;;;5.61;100.00;94463.56;10489046;28;20040;-76
2020/12/07 03:33:42;;;;;;;23.90;11.02;;;;;;;5.67;100.00;94475.09;10504908;28;20032;-76
2020/12/07 03:38:43;;;;;;;19.92;9.80;;;;;;;5.45;100.00;94477.75;10488904;28;20403;-76
2020/12/07 03:43:44;;;;;;;23.85;11.50;;;;;;;5.41;100.00;94493.41;10488695;28;20043;-76
2020/12/07 03:48:44;;;;;;;24.73;11.75;;;;;;;5.33;100.00;94477.06;10471027;28;20028;-76
2020/12/07 03:53:45;;;;;;;22.27;11.15;;;;;;;5.42;100.00;94467.59;10488298;28;20119;-76
2020/12/07 03:58:45;;;;;;;24.03;11.77;;;;;;;5.50;100.00;94456.50;10488353;28;20039;-77
2020/12/07 04:03:52;;;;;;;29.45;12.98;;;;;;;5.63;100.00;94471.31;10488390;28;20294;-77
2020/12/07 04:08:52;;;;;;;24.50;12.45;;;;;;;5.58;100.00;94465.91;10489052;28;20041;-77
2020/12/07 04:13:52;;;;;;;29.03;12.67;;;;;;;5.63;100.00;94461.44;10487952;28;20049;-77
2020/12/07 04:18:53;;;;;;;24.80;12.17;;;;;;;5.78;100.00;94468.03;10487170;28;20429;-77
2020/12/07 04:23:53;;;;;;;30.52;12.23;;;;;;;5.80;100.00;94460.56;10487982;28;20661;-77
2020/12/07 04:28:54;;;;;;;29.90;12.57;;;;;;;5.87;100.00;94455.84;10487424;28;20082;-77
2020/12/07 04:33:54;;;;;;;25.90;12.93;;;;;;;5.89;100.00;94453.75;10487540;28;20040;-76
2020/12/07 04:38:55;;;;;;;33.77;14.67;;;;;;;5.82;100.00;94450.47;10487451;28;20036;-76
2020/12/07 04:43:56;;;;;;;28.45;12.82;;;;;;;5.87;100.00;94447.84;10502908;28;20039;-76
2020/12/07 04:48:59;;;;;;;36.53;15.38;;;;;;;5.87;100.00;94439.06;10469115;28;20047;-76
2020/12/07 04:54:01;;;;;;;33.83;15.52;;;;;;;5.84;100.00;94445.69;10487598;28;20453;-76
2020/12/07 04:59:02;;;;;;;34.33;13.13;;;;;;;5.83;100.00;94444.06;10486552;28;20032;-77
2020/12/07 05:04:03;;;;;;;32.03;14.68;;;;;;;5.79;100.00;94448.28;10486706;28;20043;-76
2020/12/07 05:09:04;;;;;;;38.38;15.20;;;;;;;5.75;100.00;94441.84;10487334;28;20039;-77
2020/12/07 05:14:11;;;;;;;32.70;14.57;;;;;;;5.73;100.00;94446.63;10486323;28;20044;-76
2020/12/07 05:19:11;;;;;;;31.90;13.40;;;;;;;5.76;100.00;94436.28;10486737;28;20032;-76
2020/12/07 05:24:12;;;;;;;31.90;14.67;;;;;;;5.81;100.00;94433.66;10514643;28;20028;-76
2020/12/07 05:29:20;;;;;;;32.60;13.77;;;;;;;5.71;100.00;94436.22;10507554;28;20036;-76
2020/12/07 05:34:24;;;;;;;38.88;16.98;;;;;;;5.67;100.00;94450.31;10492959;28;20054;-76
2020/12/07 05:39:25;;;;;;;40.28;16.35;;;;;;;5.72;100.00;94442.34;10508947;28;20127;-76
2020/12/07 05:44:26;;;;;;;33.58;15.35;;;;;;;5.66;100.00;94454.81;10475101;28;20894;-72
2020/12/07 05:49:29;;;;;;;34.58;13.95;;;;;;;5.68;100.00;94441.22;10492972;28;20028;-72
2020/12/07 05:54:31;;;;;;;28.45;13.88;;;;;;;5.57;100.00;94449.13;10492732;28;20025;-73
2020/12/07 05:59:39;;;;;;;33.97;14.60;;;;;;;5.60;100.00;94450.50;10492842;28;20043;-72
2020/12/07 06:04:39;;;;;;;33.42;15.77;;;;;;;5.54;100.00;94449.63;10491975;28;20449;-74
2020/12/07 06:09:42;;;;;;;30.13;13.35;;;;;;;5.58;100.00;94445.41;10492340;28;20032;-74
2020/12/07 06:14:43;;;;;;;28.98;13.43;;;;;;;5.57;100.00;94435.00;10500195;28;20044;-73
2020/12/07 06:19:50;;;;;;;35.40;15.57;;;;;;;5.51;100.00;94428.78;10534171;28;20035;-73
2020/12/07 06:24:52;;;;;;;28.30;14.48;;;;;;;5.53;100.00;94421.34;10533716;28;20134;-73
2020/12/07 06:29:57;;;;;;;36.25;16.08;;;;;;;5.51;100.00;94423.44;10533423;28;20066;-72
2020/12/07 06:34:58;;;;;;;27.77;13.48;;;;;;;5.48;100.00;94426.63;10515257;28;20039;-72
2020/12/07 06:39:58;;;;;;;32.35;14.75;;;;;;;5.49;100.00;94417.56;10532154;28;20414;-72
2020/12/07 06:44:59;;;;;;;32.58;14.85;;;;;;;5.47;100.00;94414.38;10532059;28;20611;-73
2020/12/07 06:50:11;;;;;;;25.93;12.23;;;;;;;5.30;100.00;94411.75;10532425;28;20038;-73
2020/12/07 06:55:15;;;;;;;29.17;12.98;;;;;;;5.29;100.00;94412.81;10532040;28;20384;-73
2020/12/07 07:00:23;;;;;;;27.65;12.10;;;;;;;5.23;100.00;94409.28;10530914;28;20058;-73
2020/12/07 07:05:26;;;;;;;24.98;11.25;;;;;;;5.21;100.00;94402.59;10531356;28;20039;-73
2020/12/07 07:10:26;;;;;;;33.50;15.15;;;;;;;5.16;100.00;94395.31;10531734;28;20024;-73
2020/12/07 07:15:27;;;;;;;28.80;14.30;;;;;;;5.24;100.00;94386.09;10513185;28;20150;-75
2020/12/07 07:20:34;;;;;;;27.00;12.55;;;;;;;5.24;100.00;94394.09;10530941;28;20149;-76
2020/12/07 07:25:55;;;;;;;23.08;11.23;;;;;;;5.17;100.00;94391.59;10512692;28;20032;-74
2020/12/07 07:31:10;;;;;;;31.65;13.70;;;;;;;5.26;100.00;94407.97;10531057;28;20035;-75
2020/12/07 07:36:24;;;;;;;32.70;13.88;;;;;;;5.36;100.00;94408.09;10531061;28;20032;-74
2020/12/07 07:41:27;;;;;;;30.30;13.13;;;;;;;5.44;100.00;94410.34;10498191;28;20481;-76
2020/12/07 07:46:38;;;;;;;29.45;14.43;;;;;;;5.47;100.00;94393.03;10526453;28;20036;-73
2020/12/07 08:18:43;;;;;;;30.55;13.32;;;;;;;5.27;100.00;94413.06;10447134;28;20041;-74
2020/12/07 08:23:44;;;;;;;32.95;13.43;;;;;;;5.23;100.00;94406.63;10435482;28;20055;-75
2020/12/07 08:28:48;;;;;;;30.48;14.70;;;;;;;5.12;100.00;94418.16;10457374;28;20039;-74
2020/12/07 08:33:59;;;;;;;33.15;14.93;;;;;;;5.06;100.00;94401.31;10478855;28;20032;-75
2020/12/07 08:39:00;;;;;;;32.42;13.90;;;;;;;5.11;100.00;94405.94;10465552;28;20486;-75
2020/12/07 08:44:03;;;;;;;35.00;13.32;;;;;;;5.16;100.00;94413.16;10484943;28;20064;-75
2020/12/07 08:49:05;;;;;;;32.83;15.90;;;;;;;5.22;100.00;94402.34;10483768;28;20037;-75
2020/12/07 08:54:07;;;;;;;27.17;12.48;;;;;;;5.25;100.00;94396.50;10482089;28;20085;-75
2020/12/07 08:59:08;;;;;;;30.33;14.38;;;;;;;5.13;100.00;94387.81;10480729;28;20115;-75
2020/12/07 09:04:11;;;;;;;31.33;15.07;;;;;;;5.20;100.00;94388.44;10484415;28;20028;-75
2020/12/07 09:09:11;;;;;;;34.38;14.35;;;;;;;5.19;100.00;94368.22;10487094;28;20025;-76
2020/12/07 09:14:12;;;;;;;31.75;13.45;;;;;;;5.30;100.00;94369.94;10477857;28;20044;-74
2020/12/07 09:19:12;;;;;;;30.25;15.55;;;;;;;5.26;100.00;94357.34;10512748;28;20032;-75
2020/12/07 09:24:17;;;;;;;21.10;11.25;;;;;;;5.31;100.00;94368.84;10498015;28;20053;-75
2020/12/07 09:29:18;;;;;;;22.98;10.48;;;;;;;5.22;100.00;94349.06;10522233;28;20040;-75
2020/12/07 09:34:18;;;;;;;23.48;11.45;;;;;;;5.02;100.00;94335.47;10516974;28;20032;-75
2020/12/07 09:39:19;;;;;;;23.70;11.23;;;;;;;5.00;100.00;94335.75;10493192;28;20399;-75
2020/12/07 09:44:20;;;;;;;27.23;13.13;;;;;;;5.14;100.00;94330.84;10492807;28;20036;-74
2020/12/07 09:49:21;;;;;;;24.85;12.75;;;;;;;5.22;100.00;94330.41;10492720;28;20510;-75
2020/12/07 09:54:21;;;;;;;25.67;11.50;;;;;;;5.28;100.00;94324.06;10475328;28;20079;-75
2020/12/07 09:59:22;;;;;;;23.27;14.13;;;;;;;5.29;100.00;94324.88;10502082;28;20032;-76
2020/12/07 10:04:22;;;;;;;19.92;11.68;;;;;;;5.27;100.00;94314.47;10515811;28;20298;-77
2020/12/07 10:09:23;;;;;;;27.35;13.90;;;;;;;5.28;100.00;94296.63;10534192;28;20872;-75
2020/12/07 10:14:23;;;;;;;28.67;13.80;;;;;;;5.21;100.00;94296.03;10504496;28;20128;-75
2020/12/07 10:19:25;;;;;;;29.00;13.95;;;;;;;5.14;100.00;94301.53;10512914;28;20036;-75
2020/12/07 10:24:25;;;;;;;28.67;13.10;;;;;;;4.96;100.00;94295.47;10517776;28;20044;-75
2020/12/07 10:29:26;;;;;;;27.92;13.95;;;;;;;5.01;100.00;94288.59;10499602;28;20467;-75
2020/12/07 10:34:27;;;;;;;26.80;11.93;;;;;;;5.12;100.00;94275.16;10506185;28;20025;-75
2020/12/07 10:39:27;;;;;;;27.80;13.80;;;;;;;5.25;100.00;94270.50;10514337;28;20490;-75
2020/12/07 10:44:28;;;;;;;22.75;12.68;;;;;;;5.28;100.00;94264.66;10511347;28;20123;-75
2020/12/07 10:49:30;;;;;;;23.25;12.52;;;;;;;5.34;100.00;94263.63;10498867;28;20450;-74
2020/12/07 10:54:30;;;;;;;25.48;13.90;;;;;;;5.35;100.00;94272.44;10490679;28;20400;-74
2020/12/07 10:59:30;;;;;;;25.48;13.02;;;;;;;5.22;100.00;94257.66;10489688;28;20108;-74
2020/12/07 11:04:57;;;;;;;29.30;15.57;;;;;;;5.20;100.00;94255.25;10471925;28;20415;-74
2020/12/07 11:09:58;;;;;;;32.40;14.88;;;;;;;5.13;100.00;94242.16;10489237;28;20038;-74
2020/12/07 11:14:58;;;;;;;30.45;14.50;;;;;;;5.13;100.00;94243.97;10489448;28;20562;-75
2020/12/07 11:20:01;;;;;;;28.70;15.48;;;;;;;5.20;100.00;94243.78;10489016;28;20046;-74
2020/12/07 11:25:01;;;;;;;33.95;15.77;;;;;;;5.33;100.00;94235.41;10471062;28;20032;-74
2020/12/07 11:30:04;;;;;;;35.20;16.60;;;;;;;5.28;100.00;94238.00;10488178;28;20039;-74
2020/12/07 11:35:06;;;;;;;35.45;18.48;;;;;;;5.29;100.00;94227.09;10511680;28;20059;-73
2020/12/07 11:40:16;;;;;;;31.67;13.90;;;;;;;5.21;100.00;94224.88;10515831;28;20032;-74
2020/12/07 11:45:18;;;;;;;33.65;16.55;;;;;;;5.22;100.00;94212.38;10505803;28;20151;-74
2020/12/07 11:50:18;;;;;;;36.63;16.52;;;;;;;5.28;100.00;94214.03;10488303;28;20036;-74
2020/12/07 11:55:19;;;;;;;39.90;16.48;;;;;;;5.42;100.00;94204.56;10488002;28;20054;-73
2020/12/07 12:00:19;;;;;;;38.47;17.98;;;;;;;5.43;100.00;94208.84;10494816;28;20032;-74
2020/12/07 12:05:30;;;;;;;41.17;19.58;;;;;;;5.23;100.00;94203.31;10514847;28;20115;-75
2020/12/07 12:10:30;;;;;;;42.55;17.27;;;;;;;5.20;100.00;94206.50;10512617;28;20407;-73
2020/12/07 12:15:31;;;;;;;32.63;15.05;;;;;;;5.16;100.00;94198.19;10521998;28;20051;-73
2020/12/07 12:20:32;;;;;;;30.35;13.30;;;;;;;5.13;100.00;94204.03;10516787;28;20037;-73
2020/12/07 12:25:32;;;;;;;36.03;15.43;;;;;;;5.07;100.00;94199.72;10509046;28;20392;-73
2020/12/07 12:30:33;;;;;;;34.30;14.77;;;;;;;5.17;100.00;94205.13;10529191;28;20032;-73
2020/12/07 12:35:33;;;;;;;33.97;15.98;;;;;;;5.10;100.00;94212.53;10499216;28;20064;-73
2020/12/07 12:40:34;;;;;;;37.75;16.45;;;;;;;5.17;100.00;94212.34;10491257;28;20040;-73
2020/12/07 12:45:34;;;;;;;32.72;16.52;;;;;;;5.18;100.00;94206.75;10495304;28;20036;-74
2020/12/07 12:50:35;;;;;;;40.15;15.82;;;;;;;5.18;100.00;94201.44;10495205;28;20021;-74
2020/12/07 12:55:35;;;;;;;31.90;15.45;;;;;;;5.25;100.00;94194.03;10495112;28;20044;-74
2020/12/07 13:00:36;;;;;;;30.15;14.73;;;;;;;5.27;100.00;94193.78;10494730;28;20032;-74
2020/12/07 13:05:38;;;;;;;28.45;14.60;;;;;;;5.38;100.00;94182.13;10529471;28;20118;-72
2020/12/07 13:10:39;;;;;;;35.10;16.60;;;;;;;5.41;100.00;94194.16;10536436;28;20043;-73
2020/12/07 13:15:46;;;;;;;34.20;15.82;;;;;;;5.48;100.00;94190.22;10531864;28;20495;-74
2020/12/07 13:26:26;;;;;;;29.60;14.30;;;;;;;5.31;100.00;94198.31;10481282;28;20045;-74
2020/12/07 13:31:37;;;;;;;32.33;15.65;;;;;;;5.41;100.00;94210.13;10509459;28;20032;-74
2020/12/07 13:36:39;;;;;;;37.30;17.35;;;;;;;5.44;100.00;94202.47;10529174;28;20474;-74
2020/12/07 13:41:40;;;;;;;32.28;14.75;;;;;;;5.35;100.00;94203.97;10499775;28;20041;-74
2020/12/07 13:46:40;;;;;;;33.50;15.70;;;;;;;5.29;100.00;94203.13;10492979;28;20395;-74
2020/12/07 13:51:41;;;;;;;24.63;12.45;;;;;;;5.30;100.00;94201.25;10491254;28;20036;-73
2020/12/07 13:56:42;;;;;;;29.85;13.63;;;;;;;5.33;100.00;94192.78;10492629;28;20032;-73
2020/12/07 14:01:43;;;;;;;25.88;12.05;;;;;;;5.23;100.00;94192.66;10492526;28;20037;-73
2020/12/07 14:06:45;;;;;;;25.50;13.15;;;;;;;5.17;100.00;94199.81;10507959;28;20041;-72
2020/12/07 14:11:46;;;;;;;21.08;11.65;;;;;;;5.18;100.00;94203.25;10492255;28;20032;-73
2020/12/07 14:16:56;;;;;;;24.42;11.27;;;;;;;5.18;100.00;94197.94;10503905;28;20048;-73
2020/12/07 14:22:17;;;;;;;28.50;13.90;;;;;;;5.06;100.00;94204.22;10538339;28;20091;-73
2020/12/07 14:42:41;;;;;;;36.33;17.67;;;;;;;5.21;100.00;94192.91;10532471;28;20043;-73
2020/12/07 14:47:45;;;;;;;41.58;18.20;;;;;;;5.11;100.00;94198.16;10532340;28;20047;-73
2020/12/07 14:52:46;;;;;;;29.55;13.32;;;;;;;5.17;100.00;94197.16;10531782;28;20040;-73
2020/12/07 15:18:44;;;;;;;21.27;9.52;;;;;;;5.08;100.00;94210.13;10488346;28;20057;-73
2020/12/07 15:23:45;;;;;;;23.67;10.20;;;;;;;5.11;100.00;94208.81;10504426;28;20488;-73
2020/12/07 15:28:47;;;;;;;20.55;9.65;;;;;;;5.17;100.00;94215.00;10510525;28;20499;-73
2020/12/07 15:33:47;;;;;;;21.10;10.75;;;;;;;5.12;100.00;94218.41;10488929;28;20036;-73
2020/12/07 15:38:47;;;;;;;22.90;11.07;;;;;;;5.01;100.00;94224.69;10488137;28;20028;-73
2020/12/07 15:43:50;;;;;;;21.63;10.85;;;;;;;5.05;100.00;94231.13;10488588;28;20120;-73
2020/12/07 15:48:51;;;;;;;24.45;12.20;;;;;;;5.02;100.00;94224.41;10488417;28;20356;-73
2020/12/07 15:53:51;;;;;;;22.63;10.95;;;;;;;4.97;100.00;94235.84;10488238;28;20036;-73
2020/12/07 15:58:54;;;;;;;22.42;11.43;;;;;;;4.99;100.00;94232.13;10488749;28;20036;-74
2020/12/07 16:03:55;;;;;;;28.58;13.75;;;;;;;5.00;100.00;94236.41;10488185;28;20495;-74
2020/12/07 16:08:55;;;;;;;28.70;12.50;;;;;;;4.88;100.00;94231.22;10487333;28;20036;-74
2020/12/07 16:13:56;;;;;;;25.13;11.27;;;;;;;4.77;100.00;94235.59;10492401;28;20495;-74
2020/12/07 16:18:56;;;;;;;8.32;5.05;;;;;;;4.63;100.00;94235.19;10529497;28;20102;-74
2020/12/07 16:23:57;;;;;;;7.72;4.13;;;;;;;4.39;100.00;94235.41;10519753;28;20511;-72
2020/12/07 16:28:58;;;;;;;7.78;3.25;;;;;;;4.44;100.00;94235.50;10524562;28;20032;-72
2020/12/07 16:34:00;;;;;;;8.43;4.05;;;;;;;4.40;100.00;94241.56;10525163;28;20028;-73
2020/12/07 16:39:01;;;;;;;7.78;4.03;;;;;;;4.31;100.00;94243.03;10523302;28;20174;-72
2020/12/07 16:44:03;;;;;;;10.77;5.03;;;;;;;4.25;100.00;94239.50;10524838;28;20044;-74
2020/12/07 16:49:04;;;;;;;9.38;5.05;;;;;;;4.32;100.00;94236.66;10525650;28;20072;-72
2020/12/07 16:54:07;;;;;;;8.63;4.72;;;;;;;4.34;100.00;94246.00;10524790;28;20077;-73
2020/12/07 16:59:07;;;;;;;6.60;4.20;;;;;;;4.21;100.00;94243.69;10509545;28;20089;-73
2020/12/07 17:04:08;;;;;;;16.40;6.65;;;;;;;4.20;100.00;94253.53;10503748;28;20058;-73
2020/12/07 17:09:09;;;;;;;18.83;8.98;;;;;;;4.07;100.00;94246.69;10499951;28;20032;-73
2020/12/07 17:14:10;;;;;;;20.83;11.20;;;;;;;4.16;100.00;94259.56;10494270;28;20036;-73
2020/12/07 17:19:10;;;;;;;31.60;13.85;;;;;;;4.15;100.00;94255.31;10509726;28;20137;-74
2020/12/07 17:24:12;;;;;;;23.33;11.77;;;;;;;4.15;100.00;94261.44;10493063;28;20066;-74
2020/12/07 17:29:12;;;;;;;32.22;13.50;;;;;;;4.16;100.00;94254.25;10511275;28;20035;-74
2020/12/07 17:34:13;;;;;;;25.92;9.73;;;;;;;4.00;100.00;94258.56;10512751;28;20837;-73
2020/12/07 17:39:14;;;;;;;23.95;9.82;;;;;;;3.94;100.00;94249.69;10500349;28;20062;-73
2020/12/07 17:44:15;;;;;;;26.33;11.13;;;;;;;3.97;100.00;94245.75;10534951;28;20562;-73
2020/12/07 17:49:20;;;;;;;24.50;11.13;;;;;;;3.97;100.00;94264.38;10512319;28;20038;-73
2020/12/07 17:54:20;;;;;;;23.02;9.70;;;;;;;3.92;100.00;94262.41;10512738;28;20035;-72
2020/12/07 17:59:22;;;;;;;21.67;10.45;;;;;;;3.77;100.00;94260.34;10494593;28;20051;-73
2020/12/07 18:04:22;;;;;;;16.80;7.28;;;;;;;3.76;100.00;94256.06;10502592;28;20044;-73
2020/12/07 18:09:23;;;;;;;9.68;5.20;;;;;;;3.69;100.00;94258.88;10515144;28;20040;-73
2020/12/07 18:14:24;;;;;;;13.05;5.88;;;;;;;3.58;100.00;94249.16;10525791;28;20048;-73
2020/12/07 18:19:26;;;;;;;14.95;7.72;;;;;;;3.57;100.00;94253.66;10550420;28;20525;-73
2020/12/07 18:24:28;;;;;;;15.38;7.60;;;;;;;3.55;100.00;94241.66;10520392;28;20040;-73
2020/12/07 18:29:29;;;;;;;21.05;10.68;;;;;;;3.57;100.00;94251.00;10524855;28;20093;-73
2020/12/07 18:34:29;;;;;;;25.35;12.05;;;;;;;3.61;100.00;94261.94;10513905;28;20794;-73
2020/12/07 18:39:31;;;;;;;25.15;11.07;;;;;;;3.69;100.00;94258.88;10482633;28;20037;-73
2020/12/07 18:44:32;;;;;;;15.98;7.72;;;;;;;3.70;100.00;94260.50;10512964;28;20679;-73
2020/12/07 18:49:33;;;;;;;11.90;5.78;;;;;;;3.65;100.00;94263.06;10516459;28;20032;-73
2020/12/07 18:54:33;;;;;;;9.00;4.93;;;;;;;3.67;100.00;94266.31;10520331;28;20040;-73
2020/12/07 18:59:34;;;;;;;8.50;4.47;;;;;;;3.68;100.00;94267.91;10520513;28;20418;-73
2020/12/07 19:04:35;;;;;;;7.68;4.65;;;;;;;3.73;100.00;94275.16;10513426;28;20307;-73
2020/12/07 19:09:36;;;;;;;7.35;4.32;;;;;;;3.65;100.00;94281.69;10513291;28;20032;-73
2020/12/07 19:14:37;;;;;;;9.68;3.97;;;;;;;3.52;100.00;94274.03;10506785;28;20500;-73
2020/12/07 19:19:41;;;;;;;6.25;2.75;;;;;;;3.43;100.00;94270.94;10483974;28;20044;-73
2020/12/07 19:24:41;;;;;;;5.97;2.75;;;;;;;3.38;100.00;94263.69;10485577;28;20068;-74
2020/12/07 19:29:42;;;;;;;10.27;4.38;;;;;;;3.44;100.00;94261.16;10485157;28;20798;-74
2020/12/07 19:34:42;;;;;;;9.10;3.50;;;;;;;3.40;100.00;94260.81;10486218;28;20032;-74
2020/12/07 19:39:45;;;;;;;3.50;2.00;;;;;;;3.36;100.00;94260.50;10468665;28;20036;-75
2020/12/07 19:44:47;;;;;;;3.55;3.03;;;;;;;3.40;100.00;94269.59;10486753;28;20039;-73
2020/12/07 19:49:49;;;;;;;4.63;2.20;;;;;;;3.46;100.00;94273.16;10523924;28;20453;-75
2020/12/07 19:54:51;;;;;;;4.80;2.38;;;;;;;3.41;100.00;94281.00;10484518;28;20036;-74
2020/12/07 19:59:53;;;;;;;5.28;1.60;;;;;;;3.44;100.00;94282.41;10492380;28;20068;-74
2020/12/07 20:04:59;;;;;;;4.45;1.80;;;;;;;3.51;100.00;94280.38;10525170;28;20039;-74
2020/12/07 20:10:02;;;;;;;6.20;2.60;;;;;;;3.51;100.00;94289.16;10525688;28;20505;-74
2020/12/07 20:15:03;;;;;;;6.22;2.40;;;;;;;3.55;100.00;94287.63;10526011;28;20040;-74
2020/12/07 20:20:04;;;;;;;5.60;3.38;;;;;;;3.55;100.00;94295.59;10517144;28;20076;-76
2020/12/07 20:25:05;;;;;;;6.93;3.92;;;;;;;3.67;100.00;94295.53;10499380;28;20131;-76
2020/12/07 20:30:07;;;;;;;7.28;4.10;;;;;;;3.78;100.00;94299.16;10483288;28;20048;-77
2020/12/07 20:35:07;;;;;;;7.28;3.30;;;;;;;3.75;100.00;94292.50;10484098;28;20075;-77
2020/12/07 20:40:08;;;;;;;8.50;5.38;;;;;;;3.72;100.00;94284.97;10484722;28;20043;-76
2020/12/07 20:45:09;;;;;;;8.45;4.40;;;;;;;3.76;100.00;94294.06;10500090;28;20041;-77
2020/12/07 20:50:10;;;;;;;11.18;5.55;;;;;;;3.63;100.00;94299.72;10498078;28;20044;-77
2020/12/07 20:55:10;;;;;;;9.45;4.63;;;;;;;3.50;100.00;94298.19;10485232;28;20121;-77
2020/12/07 21:00:11;;;;;;;7.93;5.15;;;;;;;3.46;100.00;94302.38;10496449;28;20827;-76
2020/12/07 21:05:12;;;;;;;15.75;7.25;;;;;;;3.54;100.00;94299.28;10491832;28;20067;-73
2020/12/07 21:10:13;;;;;;;15.10;7.82;;;;;;;3.55;100.00;94303.56;10492374;28;20037;-73
2020/12/07 21:15:13;;;;;;;13.07;7.82;;;;;;;3.46;100.00;94302.38;10492522;28;20058;-73
2020/12/07 21:20:14;;;;;;;13.38;8.00;;;;;;;3.45;100.00;94302.56;10491914;28;20041;-73
2020/12/07 21:25:14;;;;;;;13.25;7.88;;;;;;;3.62;100.00;94318.56;10522073;28;20043;-73
2020/12/07 21:30:15;;;;;;;16.02;9.82;;;;;;;3.69;100.00;94320.00;10507588;28;20094;-73
2020/12/07 21:35:15;;;;;;;21.90;11.52;;;;;;;3.62;100.00;94318.56;10490574;28;20028;-73
2020/12/07 21:40:16;;;;;;;37.25;18.38;;;;;;;3.51;100.00;94323.69;10493428;28;20036;-73
2020/12/07 21:45:18;;;;;;;34.03;16.90;;;;;;;3.63;100.00;94320.97;10496665;28;20158;-73
2020/12/07 21:50:19;;;;;;;27.60;16.30;;;;;;;3.63;100.00;94317.50;10515345;28;20883;-73
2020/12/07 21:55:20;;;;;;;35.20;18.17;;;;;;;3.35;100.00;94314.66;10532759;28;20038;-73
2020/12/07 22:00:23;;;;;;;33.95;17.60;;;;;;;3.42;100.00;94325.94;10532729;28;20036;-73
2020/12/07 22:05:24;;;;;;;43.75;22.10;;;;;;;3.38;100.00;94322.13;10501669;28;20040;-73
2020/12/07 22:10:24;;;;;;;38.20;18.33;;;;;;;3.54;100.00;94323.19;10533431;28;20449;-73
2020/12/07 22:15:25;;;;;;;44.63;21.63;;;;;;;3.37;100.00;94325.03;10504024;28;20298;-74
2020/12/07 22:20:25;;;;;;;48.67;23.90;;;;;;;3.28;100.00;94318.47;10492319;28;20115;-73
2020/12/07 22:25:26;;;;;;;46.22;23.38;;;;;;;3.34;100.00;94317.56;10517203;28;20762;-73
2020/12/07 22:30:26;;;;;;;42.70;22.27;;;;;;;3.36;100.00;94323.41;10500691;28;20039;-73
2020/12/07 22:35:26;;;;;;;42.43;22.63;;;;;;;3.35;100.00;94317.31;10550829;28;20032;-73
2020/12/07 22:40:27;;;;;;;40.78;21.65;;;;;;;3.36;100.00;94321.59;10570736;28;20289;-74
2020/12/07 22:45:28;;;;;;;40.97;21.63;;;;;;;2.85;100.00;94324.06;10536711;28;20028;-73
2020/12/07 22:50:28;;;;;;;45.40;23.05;;;;;;;2.80;100.00;94316.00;10494927;28;20044;-73
2020/12/07 22:55:29;;;;;;;42.80;21.60;;;;;;;2.42;100.00;94322.63;10489265;28;20056;-73
2020/12/07 23:00:30;;;;;;;39.90;20.63;;;;;;;2.54;100.00;94322.59;10510458;28;20679;-73
2020/12/07 23:05:31;;;;;;;43.08;19.55;;;;;;;2.55;100.00;94316.28;10555018;28;20068;-73
2020/12/07 23:10:31;;;;;;;28.15;15.43;;;;;;;2.57;100.00;94322.16;10530560;28;20161;-73
2020/12/07 23:15:32;;;;;;;25.75;14.00;;;;;;;2.74;100.00;94314.28;10572736;28;20449;-73
2020/12/07 23:20:32;;;;;;;21.13;11.77;;;;;;;2.78;100.00;94317.25;10571226;28;20092;-73
2020/12/07 23:25:32;;;;;;;21.48;11.65;;;;;;;2.51;100.00;94315.13;10516597;28;20294;-73
2020/12/07 23:30:33;;;;;;;21.10;11.63;;;;;;;2.45;100.00;94324.81;10487700;28;20032;-73
2020/12/07 23:35:33;;;;;;;26.90;13.38;;;;;;;2.24;100.00;94320.13;10469636;28;20302;-73
2020/12/07 23:40:34;;;;;;;27.98;13.70;;;;;;;2.17;100.00;94328.97;10523352;28;20040;-73
2020/12/07 23:45:34;;;;;;;28.38;15.82;;;;;;;2.02;100.00;94328.63;10511397;28;20036;-73
2020/12/07 23:50:35;;;;;;;33.63;16.88;;;;;;;1.98;100.00;94328.28;10507629;28;20032;-73
2020/12/07 23:55:35;;;;;;;36.53;18.38;;;;;;;2.02;100.00;94320.69;10500069;28;20530;-73
